sensor_id;sensor_type;location;lat;lon;timestamp;pressure;altitude;pressure_sealevel;temperature;humidity
48872;BME280;36154;51.674;7.824;2023-04-04T00:00:28;102161.16;;;19.68;46.18
48872;BME280;36154;51.674;7.824;2023-04-04T00:02:53;102168.06;;;19.66;46.30
48872;BME280;36154;51.674;7.824;2023-04-04T00:05:18;102165.47;;;19.67;46.15
48872;BME280;36154;51.674;7.824;2023-04-04T00:07:47;102157.72;;;19.67;45.92
48872;BME280;36154;51.674;7.824;2023-04-04T00:10:13;102156.84;;;19.65;46.04
48872;BME280;36154;51.674;7.824;2023-04-04T00:12:38;102161.19;;;19.65;46.05
48872;BME280;36154;51.674;7.824;2023-04-04T00:15:04;102160.28;;;19.67;46.22
48872;BME280;36154;51.674;7.824;2023-04-04T00:17:29;102154.28;;;19.67;46.21
48872;BME280;36154;51.674;7.824;2023-04-04T00:19:55;102156.00;;;19.65;46.05
48872;BME280;36154;51.674;7.824;2023-04-04T00:22:22;102155.97;;;19.68;46.03
48872;BME280;36154;51.674;7.824;2023-04-04T00:24:47;102159.44;;;19.67;45.86
48872;BME280;36154;51.674;7.824;2023-04-04T00:27:13;102160.28;;;19.67;45.94
48872;BME280;36154;51.674;7.824;2023-04-04T00:29:38;102161.19;;;19.66;45.99
48872;BME280;36154;51.674;7.824;2023-04-04T00:32:04;102149.06;;;19.61;46.28
48872;BME280;36154;51.674;7.824;2023-04-04T00:34:29;102157.72;;;19.66;46.12
48872;BME280;36154;51.674;7.824;2023-04-04T00:36:55;102153.41;;;19.66;45.94
48872;BME280;36154;51.674;7.824;2023-04-04T00:39:20;102153.41;;;19.66;45.94
48872;BME280;36154;51.674;7.824;2023-04-04T00:41:48;102146.50;;;19.65;46.10
48872;BME280;36154;51.674;7.824;2023-04-04T00:44:13;102155.13;;;19.66;46.26
48872;BME280;36154;51.674;7.824;2023-04-04T00:46:38;102156.00;;;19.65;45.75
48872;BME280;36154;51.674;7.824;2023-04-04T00:49:04;102149.94;;;19.66;45.95
48872;BME280;36154;51.674;7.824;2023-04-04T00:51:30;102151.69;;;19.65;46.07
48872;BME280;36154;51.674;7.824;2023-04-04T00:53:56;102156.84;;;19.65;46.17
48872;BME280;36154;51.674;7.824;2023-04-04T00:56:22;102151.69;;;19.65;46.24
48872;BME280;36154;51.674;7.824;2023-04-04T00:58:47;102153.41;;;19.66;46.15
48872;BME280;36154;51.674;7.824;2023-04-04T01:01:13;102152.53;;;19.66;46.00
48872;BME280;36154;51.674;7.824;2023-04-04T01:03:38;102157.72;;;19.66;46.00
48872;BME280;36154;51.674;7.824;2023-04-04T01:06:05;102152.53;;;19.66;46.01
48872;BME280;36154;51.674;7.824;2023-04-04T01:08:33;102152.53;;;19.66;46.15
48872;BME280;36154;51.674;7.824;2023-04-04T01:11:00;102148.25;;;19.65;46.16
48872;BME280;36154;51.674;7.824;2023-04-04T01:13:25;102147.38;;;19.66;45.93
48872;BME280;36154;51.674;7.824;2023-04-04T01:15:51;102142.19;;;19.66;46.11
48872;BME280;36154;51.674;7.824;2023-04-04T01:18:19;102146.50;;;19.65;46.13
48872;BME280;36154;51.674;7.824;2023-04-04T01:21:05;102143.06;;;19.65;46.00
48872;BME280;36154;51.674;7.824;2023-04-04T01:23:48;102141.34;;;19.65;46.11
48872;BME280;36154;51.674;7.824;2023-04-04T01:26:14;102143.94;;;19.65;46.18
48872;BME280;36154;51.674;7.824;2023-04-04T01:28:40;102148.25;;;19.65;45.94
48872;BME280;36154;51.674;7.824;2023-04-04T01:31:06;102158.59;;;19.66;46.11
48872;BME280;36154;51.674;7.824;2023-04-04T01:33:53;102145.66;;;19.65;45.96
48872;BME280;36154;51.674;7.824;2023-04-04T01:36:51;102138.75;;;19.64;46.12
48872;BME280;36154;51.674;7.824;2023-04-04T01:39:27;102143.94;;;19.64;46.03
48872;BME280;36154;51.674;7.824;2023-04-04T01:41:57;102141.34;;;19.64;45.94
48872;BME280;36154;51.674;7.824;2023-04-04T01:44:24;102143.94;;;19.64;46.03
48872;BME280;36154;51.674;7.824;2023-04-04T01:46:54;102133.59;;;19.64;46.05
48872;BME280;36154;51.674;7.824;2023-04-04T01:49:21;102133.59;;;19.64;46.04
48872;BME280;36154;51.674;7.824;2023-04-04T01:51:49;102128.41;;;19.64;46.03
48872;BME280;36154;51.674;7.824;2023-04-04T01:54:19;102128.41;;;19.64;46.19
48872;BME280;36154;51.674;7.824;2023-04-04T01:56:45;102131.00;;;19.64;46.06
48872;BME280;36154;51.674;7.824;2023-04-04T01:59:11;102126.69;;;19.63;46.00
48872;BME280;36154;51.674;7.824;2023-04-04T02:01:36;102123.22;;;19.62;45.95
48872;BME280;36154;51.674;7.824;2023-04-04T02:04:03;102117.19;;;19.62;46.05
48872;BME280;36154;51.674;7.824;2023-04-04T02:06:29;102125.81;;;19.64;46.08
48872;BME280;36154;51.674;7.824;2023-04-04T02:08:55;102112.00;;;19.62;45.84
48872;BME280;36154;51.674;7.824;2023-04-04T02:11:21;102121.47;;;19.61;46.06
48872;BME280;36154;51.674;7.824;2023-04-04T02:13:48;102113.72;;;19.61;45.95
48872;BME280;36154;51.674;7.824;2023-04-04T02:16:13;102123.22;;;19.62;45.99
48872;BME280;36154;51.674;7.824;2023-04-04T02:18:40;102118.88;;;19.61;46.10
48872;BME280;36154;51.674;7.824;2023-04-04T02:21:06;102121.50;;;19.60;46.09
48872;BME280;36154;51.674;7.824;2023-04-04T02:23:31;102124.09;;;19.60;45.97
48872;BME280;36154;51.674;7.824;2023-04-04T02:25:57;102126.66;;;19.61;46.17
48872;BME280;36154;51.674;7.824;2023-04-04T02:28:24;102120.63;;;19.61;46.01
48872;BME280;36154;51.674;7.824;2023-04-04T02:30:50;102123.22;;;19.61;46.01
48872;BME280;36154;51.674;7.824;2023-04-04T02:33:16;102121.50;;;19.60;46.03
48872;BME280;36154;51.674;7.824;2023-04-04T02:35:42;102130.13;;;19.60;46.03
48872;BME280;36154;51.674;7.824;2023-04-04T02:38:08;102118.91;;;19.60;45.98
48872;BME280;36154;51.674;7.824;2023-04-04T02:40:33;102112.84;;;19.57;46.31
48872;BME280;36154;51.674;7.824;2023-04-04T02:43:03;102116.34;;;19.60;46.05
48872;BME280;36154;51.674;7.824;2023-04-04T02:45:29;102121.50;;;19.60;46.14
48872;BME280;36154;51.674;7.824;2023-04-04T02:47:55;102111.16;;;19.60;45.95
48872;BME280;36154;51.674;7.824;2023-04-04T02:50:21;102116.34;;;19.60;46.03
48872;BME280;36154;51.674;7.824;2023-04-04T02:52:47;102113.75;;;19.60;45.90
48872;BME280;36154;51.674;7.824;2023-04-04T02:55:13;102112.88;;;19.61;46.09
48872;BME280;36154;51.674;7.824;2023-04-04T02:57:38;102112.88;;;19.61;45.90
48872;BME280;36154;51.674;7.824;2023-04-04T03:00:05;102106.00;;;19.60;46.06
48872;BME280;36154;51.674;7.824;2023-04-04T03:02:31;102111.16;;;19.60;46.06
48872;BME280;36154;51.674;7.824;2023-04-04T03:04:57;102118.03;;;19.61;45.98
48872;BME280;36154;51.674;7.824;2023-04-04T03:07:23;102106.84;;;19.60;45.85
48872;BME280;36154;51.674;7.824;2023-04-04T03:09:48;102106.00;;;19.60;45.83
48872;BME280;36154;51.674;7.824;2023-04-04T03:12:14;102111.16;;;19.60;45.99
48872;BME280;36154;51.674;7.824;2023-04-04T03:14:40;102107.69;;;19.59;46.00
48872;BME280;36154;51.674;7.824;2023-04-04T03:17:06;102109.44;;;19.58;46.01
48872;BME280;36154;51.674;7.824;2023-04-04T03:19:34;102106.00;;;19.60;46.00
48872;BME280;36154;51.674;7.824;2023-04-04T03:21:59;102101.66;;;19.58;45.97
48872;BME280;36154;51.674;7.824;2023-04-04T03:24:25;102101.66;;;19.58;45.78
48872;BME280;36154;51.674;7.824;2023-04-04T03:26:53;102098.22;;;19.56;45.98
48872;BME280;36154;51.674;7.824;2023-04-04T03:29:19;102095.66;;;19.56;45.85
48872;BME280;36154;51.674;7.824;2023-04-04T03:31:44;102095.66;;;19.56;45.98
48872;BME280;36154;51.674;7.824;2023-04-04T03:34:13;102095.66;;;19.56;45.78
48872;BME280;36154;51.674;7.824;2023-04-04T03:36:38;102086.16;;;19.55;45.76
48872;BME280;36154;51.674;7.824;2023-04-04T03:39:05;102088.75;;;19.55;45.98
48872;BME280;36154;51.674;7.824;2023-04-04T03:41:31;102083.56;;;19.55;45.87
48872;BME280;36154;51.674;7.824;2023-04-04T03:43:57;102079.25;;;19.54;45.92
48872;BME280;36154;51.674;7.824;2023-04-04T03:46:22;102081.84;;;19.54;46.03
48872;BME280;36154;51.674;7.824;2023-04-04T03:48:49;102068.06;;;19.52;45.67
48872;BME280;36154;51.674;7.824;2023-04-04T03:51:22;102071.50;;;19.54;45.81
48872;BME280;36154;51.674;7.824;2023-04-04T03:53:47;102079.28;;;19.53;45.63
48872;BME280;36154;51.674;7.824;2023-04-04T03:56:13;102062.88;;;19.52;45.74
48872;BME280;36154;51.674;7.824;2023-04-04T03:58:39;102060.31;;;19.54;45.73
48872;BME280;36154;51.674;7.824;2023-04-04T04:01:05;102064.63;;;19.53;45.77
48872;BME280;36154;51.674;7.824;2023-04-04T04:03:30;102060.31;;;19.54;45.73
48872;BME280;36154;51.674;7.824;2023-04-04T04:05:56;102056.88;;;19.53;45.58
48872;BME280;36154;51.674;7.824;2023-04-04T04:08:22;102062.03;;;19.55;45.60
48872;BME280;36154;51.674;7.824;2023-04-04T04:10:48;102064.63;;;19.56;45.58
48872;BME280;36154;51.674;7.824;2023-04-04T04:13:13;102053.41;;;19.56;45.68
48872;BME280;36154;51.674;7.824;2023-04-04T04:15:39;102060.31;;;19.55;45.69
48872;BME280;36154;51.674;7.824;2023-04-04T04:18:05;102069.78;;;19.56;45.44
48872;BME280;36154;51.674;7.824;2023-04-04T04:20:31;102071.50;;;19.57;45.36
48872;BME280;36154;51.674;7.824;2023-04-04T04:22:56;102069.78;;;19.56;45.37
48872;BME280;36154;51.674;7.824;2023-04-04T04:25:22;102072.38;;;19.58;45.51
48872;BME280;36154;51.674;7.824;2023-04-04T04:27:54;102061.16;;;19.57;45.37
48872;BME280;36154;51.674;7.824;2023-04-04T04:30:21;102062.03;;;19.56;45.41
48872;BME280;36154;51.674;7.824;2023-04-04T04:32:50;102063.75;;;19.59;45.52
48872;BME280;36154;51.674;7.824;2023-04-04T04:35:16;102062.88;;;19.58;45.38
48872;BME280;36154;51.674;7.824;2023-04-04T04:37:42;102065.47;;;19.58;45.37
48872;BME280;36154;51.674;7.824;2023-04-04T04:40:08;102054.28;;;19.60;45.53
48872;BME280;36154;51.674;7.824;2023-04-04T04:42:34;102066.31;;;19.61;45.37
48872;BME280;36154;51.674;7.824;2023-04-04T04:45:00;102066.31;;;19.61;45.26
48872;BME280;36154;51.674;7.824;2023-04-04T04:47:32;102062.88;;;19.62;45.19
48872;BME280;36154;51.674;7.824;2023-04-04T04:50:06;102058.59;;;19.64;45.03
48872;BME280;36154;51.674;7.824;2023-04-04T04:52:35;102065.50;;;19.65;45.01
48872;BME280;36154;51.674;7.824;2023-04-04T04:55:01;102062.88;;;19.68;44.94
48872;BME280;36154;51.674;7.824;2023-04-04T04:57:27;102065.47;;;19.69;45.15
48872;BME280;36154;51.674;7.824;2023-04-04T04:59:56;102064.63;;;19.72;45.34
48872;BME280;36154;51.674;7.824;2023-04-04T05:02:21;102057.72;;;19.71;45.88
48872;BME280;36154;51.674;7.824;2023-04-04T05:04:47;102063.72;;;19.78;46.18
48872;BME280;36154;51.674;7.824;2023-04-04T05:07:13;102065.47;;;19.80;46.40
48872;BME280;36154;51.674;7.824;2023-04-04T05:09:45;102064.56;;;19.84;46.51
48872;BME280;36154;51.674;7.824;2023-04-04T05:12:10;102060.25;;;19.88;46.51
48872;BME280;36154;51.674;7.824;2023-04-04T05:14:37;102068.88;;;19.91;46.70
48872;BME280;36154;51.674;7.824;2023-04-04T05:17:03;102069.72;;;19.93;46.60
48872;BME280;36154;51.674;7.824;2023-04-04T05:19:28;102074.91;;;19.97;46.65
48872;BME280;36154;51.674;7.824;2023-04-04T05:21:54;102080.03;;;20.00;46.55
48872;BME280;36154;51.674;7.824;2023-04-04T05:24:20;102084.34;;;20.04;46.68
48872;BME280;36154;51.674;7.824;2023-04-04T05:26:47;102084.34;;;20.07;46.77
48872;BME280;36154;51.674;7.824;2023-04-04T05:29:13;102080.03;;;20.09;46.73
48872;BME280;36154;51.674;7.824;2023-04-04T05:31:44;102080.88;;;20.11;46.77
48872;BME280;36154;51.674;7.824;2023-04-04T05:34:10;102080.00;;;20.15;46.77
48872;BME280;36154;51.674;7.824;2023-04-04T05:36:36;102079.13;;;20.16;46.91
48872;BME280;36154;51.674;7.824;2023-04-04T05:39:06;102090.31;;;20.18;47.05
48872;BME280;36154;51.674;7.824;2023-04-04T05:41:32;102083.44;;;20.20;46.87
48872;BME280;36154;51.674;7.824;2023-04-04T05:43:58;102093.78;;;20.23;46.90
48872;BME280;36154;51.674;7.824;2023-04-04T05:46:25;102088.63;;;20.20;46.67
48872;BME280;36154;51.674;7.824;2023-04-04T05:48:51;102102.38;;;20.25;46.81
48872;BME280;36154;51.674;7.824;2023-04-04T05:51:23;102102.38;;;20.25;46.73
48872;BME280;36154;51.674;7.824;2023-04-04T05:53:49;102113.59;;;20.26;46.38
48872;BME280;36154;51.674;7.824;2023-04-04T05:56:14;102104.09;;;20.26;46.58
48872;BME280;36154;51.674;7.824;2023-04-04T05:58:41;102097.22;;;20.22;46.42
48872;BME280;36154;51.674;7.824;2023-04-04T06:01:09;102100.66;;;20.26;46.49
48872;BME280;36154;51.674;7.824;2023-04-04T06:03:41;102106.69;;;20.26;46.52
48872;BME280;36154;51.674;7.824;2023-04-04T06:06:07;102119.63;;;20.26;46.39
48872;BME280;36154;51.674;7.824;2023-04-04T06:08:36;102120.50;;;20.25;46.01
48872;BME280;36154;51.674;7.824;2023-04-04T06:11:01;102120.50;;;20.24;46.10
48872;BME280;36154;51.674;7.824;2023-04-04T06:13:32;102116.19;;;20.21;46.28
48872;BME280;36154;51.674;7.824;2023-04-04T06:15:58;102126.53;;;20.21;46.02
48872;BME280;36154;51.674;7.824;2023-04-04T06:18:23;102133.47;;;20.21;46.01
48872;BME280;36154;51.674;7.824;2023-04-04T06:20:58;102134.31;;;20.20;45.93
48872;BME280;36154;51.674;7.824;2023-04-04T06:23:28;102131.72;;;20.18;46.10
48872;BME280;36154;51.674;7.824;2023-04-04T06:25:54;102133.47;;;20.18;46.05
48872;BME280;36154;51.674;7.824;2023-04-04T06:28:34;102133.47;;;20.16;46.20
48872;BME280;36154;51.674;7.824;2023-04-04T06:31:00;102137.78;;;20.16;46.19
48872;BME280;36154;51.674;7.824;2023-04-04T06:33:49;102141.22;;;20.15;46.21
48872;BME280;36154;51.674;7.824;2023-04-04T06:36:14;102141.22;;;20.15;46.20
48872;BME280;36154;51.674;7.824;2023-04-04T06:38:41;102149.00;;;20.13;46.22
48872;BME280;36154;51.674;7.824;2023-04-04T06:41:06;102143.81;;;20.13;45.97
48872;BME280;36154;51.674;7.824;2023-04-04T06:43:32;102149.00;;;20.13;46.04
48872;BME280;36154;51.674;7.824;2023-04-04T06:45:58;102152.47;;;20.12;46.07
48872;BME280;36154;51.674;7.824;2023-04-04T06:48:24;102150.72;;;20.11;45.99
48872;BME280;36154;51.674;7.824;2023-04-04T06:50:53;102143.84;;;20.10;46.05
48872;BME280;36154;51.674;7.824;2023-04-04T06:53:19;102154.22;;;20.10;46.00
48872;BME280;36154;51.674;7.824;2023-04-04T06:55:45;102146.44;;;20.10;46.10
48872;BME280;36154;51.674;7.824;2023-04-04T06:58:11;102157.66;;;20.09;46.27
48872;BME280;36154;51.674;7.824;2023-04-04T07:00:36;102157.66;;;20.09;46.34
48872;BME280;36154;51.674;7.824;2023-04-04T07:03:05;102158.50;;;20.08;46.32
48872;BME280;36154;51.674;7.824;2023-04-04T07:05:31;102155.91;;;20.08;46.27
48872;BME280;36154;51.674;7.824;2023-04-04T07:07:57;102154.22;;;20.07;46.27
48872;BME280;36154;51.674;7.824;2023-04-04T07:10:24;102155.06;;;20.06;46.27
48872;BME280;36154;51.674;7.824;2023-04-04T07:12:50;102162.81;;;20.06;46.20
48872;BME280;36154;51.674;7.824;2023-04-04T07:15:16;102157.66;;;20.06;46.22
48872;BME280;36154;51.674;7.824;2023-04-04T07:17:42;102150.78;;;20.05;46.27
48872;BME280;36154;51.674;7.824;2023-04-04T07:20:08;102155.06;;;20.04;46.12
48872;BME280;36154;51.674;7.824;2023-04-04T07:22:38;102156.81;;;20.04;46.13
48872;BME280;36154;51.674;7.824;2023-04-04T07:25:07;102158.53;;;20.03;45.98
48872;BME280;36154;51.674;7.824;2023-04-04T07:27:39;102147.31;;;20.03;46.02
48872;BME280;36154;51.674;7.824;2023-04-04T07:30:08;102145.59;;;20.02;45.62
48872;BME280;36154;51.674;7.824;2023-04-04T07:32:34;102150.78;;;20.02;45.99
48872;BME280;36154;51.674;7.824;2023-04-04T07:35:00;102144.72;;;20.01;46.06
48872;BME280;36154;51.674;7.824;2023-04-04T07:37:25;102144.72;;;20.01;46.06
48872;BME280;36154;51.674;7.824;2023-04-04T07:39:51;102143.00;;;20.00;45.77
48872;BME280;36154;51.674;7.824;2023-04-04T07:42:17;102150.78;;;20.00;46.00
48872;BME280;36154;51.674;7.824;2023-04-04T07:44:52;102146.44;;;19.99;45.69
48872;BME280;36154;51.674;7.824;2023-04-04T07:47:18;102142.13;;;20.00;45.99
48872;BME280;36154;51.674;7.824;2023-04-04T07:49:44;102139.56;;;19.98;45.94
48872;BME280;36154;51.674;7.824;2023-04-04T07:52:10;102132.66;;;19.99;45.73
48872;BME280;36154;51.674;7.824;2023-04-04T07:54:37;102131.81;;;19.98;45.72
48872;BME280;36154;51.674;7.824;2023-04-04T07:57:04;102128.34;;;19.98;45.85
48872;BME280;36154;51.674;7.824;2023-04-04T07:59:31;102124.91;;;19.99;45.85
48872;BME280;36154;51.674;7.824;2023-04-04T08:01:57;102122.31;;;19.99;45.88
48872;BME280;36154;51.674;7.824;2023-04-04T08:04:22;102120.59;;;19.98;45.59
48872;BME280;36154;51.674;7.824;2023-04-04T08:06:48;102126.63;;;19.98;45.62
48872;BME280;36154;51.674;7.824;2023-04-04T08:09:14;102130.06;;;19.99;45.59
48872;BME280;36154;51.674;7.824;2023-04-04T08:11:40;102133.53;;;19.98;45.67
48872;BME280;36154;51.674;7.824;2023-04-04T08:14:07;102129.22;;;19.97;45.41
48872;BME280;36154;51.674;7.824;2023-04-04T08:16:37;102125.75;;;19.98;45.42
48872;BME280;36154;51.674;7.824;2023-04-04T08:19:03;102125.75;;;19.96;45.37
48872;BME280;36154;51.674;7.824;2023-04-04T08:21:29;102133.53;;;19.98;45.35
48872;BME280;36154;51.674;7.824;2023-04-04T08:23:55;102125.75;;;19.96;45.58
48872;BME280;36154;51.674;7.824;2023-04-04T08:26:21;102124.06;;;19.98;45.31
48872;BME280;36154;51.674;7.824;2023-04-04T08:28:47;102137.00;;;19.97;45.26
48872;BME280;36154;51.674;7.824;2023-04-04T08:31:13;102133.53;;;19.98;45.32
48872;BME280;36154;51.674;7.824;2023-04-04T08:33:39;102129.22;;;19.97;45.28
48872;BME280;36154;51.674;7.824;2023-04-04T08:36:06;102126.63;;;19.97;45.24
48872;BME280;36154;51.674;7.824;2023-04-04T08:38:32;102121.47;;;19.97;45.36
48872;BME280;36154;51.674;7.824;2023-04-04T08:40:57;102121.47;;;19.97;45.22
48872;BME280;36154;51.674;7.824;2023-04-04T08:43:23;102125.75;;;19.96;45.13
48872;BME280;36154;51.674;7.824;2023-04-04T08:45:52;102127.50;;;19.96;45.28
48872;BME280;36154;51.674;7.824;2023-04-04T08:48:21;102130.09;;;19.96;45.02
48872;BME280;36154;51.674;7.824;2023-04-04T08:50:51;102129.22;;;19.95;45.00
48872;BME280;36154;51.674;7.824;2023-04-04T08:53:21;102121.47;;;19.95;45.20
48872;BME280;36154;51.674;7.824;2023-04-04T08:55:47;102132.66;;;19.94;45.15
48872;BME280;36154;51.674;7.824;2023-04-04T08:58:13;102134.41;;;19.95;45.06
48872;BME280;36154;51.674;7.824;2023-04-04T09:00:41;102123.16;;;19.94;45.16
48872;BME280;36154;51.674;7.824;2023-04-04T09:03:33;102118.88;;;19.93;45.07
48872;BME280;36154;51.674;7.824;2023-04-04T09:06:01;102124.91;;;19.92;45.14
48872;BME280;36154;51.674;7.824;2023-04-04T09:08:29;102129.22;;;19.92;45.07
48872;BME280;36154;51.674;7.824;2023-04-04T09:10:56;102114.56;;;19.92;44.91
48872;BME280;36154;51.674;7.824;2023-04-04T09:13:22;102123.22;;;19.91;45.14
48872;BME280;36154;51.674;7.824;2023-04-04T09:15:52;102124.06;;;19.89;45.04
48872;BME280;36154;51.674;7.824;2023-04-04T09:18:21;102124.91;;;19.92;45.01
48872;BME280;36154;51.674;7.824;2023-04-04T09:20:48;102129.22;;;19.92;45.02
48872;BME280;36154;51.674;7.824;2023-04-04T09:23:15;102128.38;;;19.91;44.82
48872;BME280;36154;51.674;7.824;2023-04-04T09:25:49;102123.22;;;19.91;44.87
48872;BME280;36154;51.674;7.824;2023-04-04T09:28:15;102117.16;;;19.91;45.37
48872;BME280;36154;51.674;7.824;2023-04-04T09:30:42;102121.47;;;19.90;44.70
48872;BME280;36154;51.674;7.824;2023-04-04T09:33:12;102118.03;;;19.91;45.05
48872;BME280;36154;51.674;7.824;2023-04-04T09:35:46;102124.06;;;19.89;45.02
48872;BME280;36154;51.674;7.824;2023-04-04T09:38:13;102123.22;;;19.88;44.95
48872;BME280;36154;51.674;7.824;2023-04-04T09:40:40;102114.56;;;19.89;44.75
48872;BME280;36154;51.674;7.824;2023-04-04T09:43:07;102107.69;;;19.88;44.72
48872;BME280;36154;51.674;7.824;2023-04-04T09:45:34;102110.28;;;19.90;44.37
48872;BME280;36154;51.674;7.824;2023-04-04T09:48:01;102112.84;;;19.91;44.70
48872;BME280;36154;51.674;7.824;2023-04-04T09:50:27;102109.38;;;19.92;44.98
48872;BME280;36154;51.674;7.824;2023-04-04T09:52:58;102110.22;;;19.98;45.06
48872;BME280;36154;51.674;7.824;2023-04-04T09:55:32;102111.06;;;20.03;45.14
48872;BME280;36154;51.674;7.824;2023-04-04T09:57:58;102112.81;;;20.07;44.98
48872;BME280;36154;51.674;7.824;2023-04-04T10:00:28;102104.16;;;20.11;45.04
48872;BME280;36154;51.674;7.824;2023-04-04T10:02:55;102108.47;;;20.15;45.05
48872;BME280;36154;51.674;7.824;2023-04-04T10:05:23;102102.41;;;20.19;45.07
48872;BME280;36154;51.674;7.824;2023-04-04T10:07:49;102104.13;;;20.23;45.27
48872;BME280;36154;51.674;7.824;2023-04-04T10:10:15;102095.47;;;20.27;44.88
48872;BME280;36154;51.674;7.824;2023-04-04T10:12:44;102089.44;;;20.30;44.84
48872;BME280;36154;51.674;7.824;2023-04-04T10:15:14;102091.13;;;20.33;45.23
48872;BME280;36154;51.674;7.824;2023-04-04T10:17:47;102085.09;;;20.37;45.90
48872;BME280;36154;51.674;7.824;2023-04-04T10:20:18;102090.22;;;20.40;46.02
48872;BME280;36154;51.674;7.824;2023-04-04T10:22:53;102081.59;;;20.39;46.30
48872;BME280;36154;51.674;7.824;2023-04-04T10:25:19;102079.88;;;20.43;46.31
48872;BME280;36154;51.674;7.824;2023-04-04T10:27:44;102086.78;;;20.44;46.04
48872;BME280;36154;51.674;7.824;2023-04-04T10:30:13;102085.03;;;20.46;46.06
48872;BME280;36154;51.674;7.824;2023-04-04T10:32:42;102078.13;;;20.46;45.93
48872;BME280;36154;51.674;7.824;2023-04-04T10:35:13;102076.44;;;20.47;45.84
48872;BME280;36154;51.674;7.824;2023-04-04T10:37:43;102076.44;;;20.47;45.86
48872;BME280;36154;51.674;7.824;2023-04-04T10:40:15;102065.16;;;20.46;45.88
48872;BME280;36154;51.674;7.824;2023-04-04T10:42:44;102066.09;;;20.47;45.76
48872;BME280;36154;51.674;7.824;2023-04-04T10:45:12;102072.13;;;20.47;45.68
48872;BME280;36154;51.674;7.824;2023-04-04T10:47:40;102069.50;;;20.46;45.54
48872;BME280;36154;51.674;7.824;2023-04-04T10:50:07;102064.31;;;20.46;45.08
48872;BME280;36154;51.674;7.824;2023-04-04T10:52:35;102062.59;;;20.45;44.72
48872;BME280;36154;51.674;7.824;2023-04-04T10:55:11;102053.13;;;20.45;44.74
48872;BME280;36154;51.674;7.824;2023-04-04T10:57:43;102059.13;;;20.46;44.75
48872;BME280;36154;51.674;7.824;2023-04-04T11:00:12;102052.22;;;20.45;44.87
48872;BME280;36154;51.674;7.824;2023-04-04T11:05:23;102043.59;;;20.44;44.94
48872;BME280;36154;51.674;7.824;2023-04-04T11:07:56;102037.59;;;20.42;44.78
48872;BME280;36154;51.674;7.824;2023-04-04T11:10:32;102042.75;;;20.44;45.01
48872;BME280;36154;51.674;7.824;2023-04-04T11:13:07;102040.16;;;20.44;45.83
48872;BME280;36154;51.674;7.824;2023-04-04T11:18:14;102036.75;;;20.42;45.90
48872;BME280;36154;51.674;7.824;2023-04-04T11:20:41;102041.91;;;20.42;46.29
48872;BME280;36154;51.674;7.824;2023-04-04T11:23:17;102035.00;;;20.42;46.39
48872;BME280;36154;51.674;7.824;2023-04-04T11:25:53;102024.66;;;20.41;45.98
48872;BME280;36154;51.674;7.824;2023-04-04T11:39:29;102022.97;;;20.37;44.47
48872;BME280;36154;51.674;7.824;2023-04-04T11:42:13;102021.22;;;20.36;44.20
48872;BME280;36154;51.674;7.824;2023-04-04T11:45:01;102019.50;;;20.35;43.71
48872;BME280;36154;51.674;7.824;2023-04-04T11:47:30;102023.81;;;20.34;43.87
48872;BME280;36154;51.674;7.824;2023-04-04T11:49:56;102022.97;;;20.34;43.74
48872;BME280;36154;51.674;7.824;2023-04-04T11:52:22;102022.09;;;20.33;43.17
48872;BME280;36154;51.674;7.824;2023-04-04T11:54:50;102017.81;;;20.32;42.85
48872;BME280;36154;51.674;7.824;2023-04-04T11:57:18;102009.16;;;20.31;42.78
48872;BME280;36154;51.674;7.824;2023-04-04T11:59:48;102009.16;;;20.31;42.31
48872;BME280;36154;51.674;7.824;2023-04-04T12:02:20;102004.88;;;20.32;41.10
48872;BME280;36154;51.674;7.824;2023-04-04T12:04:50;102002.31;;;20.21;37.97
48872;BME280;36154;51.674;7.824;2023-04-04T12:07:16;101992.03;;;20.09;35.90
48872;BME280;36154;51.674;7.824;2023-04-04T12:09:49;101989.53;;;19.95;34.33
48872;BME280;36154;51.674;7.824;2023-04-04T12:12:27;101981.81;;;19.83;33.53
48872;BME280;36154;51.674;7.824;2023-04-04T12:14:53;101987.88;;;19.74;31.82
48872;BME280;36154;51.674;7.824;2023-04-04T12:17:19;101987.91;;;19.69;30.61
48872;BME280;36154;51.674;7.824;2023-04-04T12:19:49;101981.03;;;19.64;28.75
48872;BME280;36154;51.674;7.824;2023-04-04T12:22:15;101978.44;;;19.54;29.02
48872;BME280;36154;51.674;7.824;2023-04-04T12:24:40;101973.28;;;19.51;29.13
48872;BME280;36154;51.674;7.824;2023-04-04T12:27:06;101965.53;;;19.50;29.11
48872;BME280;36154;51.674;7.824;2023-04-04T12:29:33;101968.97;;;19.56;30.51
48872;BME280;36154;51.674;7.824;2023-04-04T12:32:03;101964.63;;;19.68;32.19
48872;BME280;36154;51.674;7.824;2023-04-04T12:34:41;101961.16;;;19.78;33.31
48872;BME280;36154;51.674;7.824;2023-04-04T12:37:09;101955.06;;;19.88;34.24
48872;BME280;36154;51.674;7.824;2023-04-04T12:39:45;101950.69;;;20.00;35.07
48872;BME280;36154;51.674;7.824;2023-04-04T12:42:22;101945.47;;;20.09;35.79
48872;BME280;36154;51.674;7.824;2023-04-04T12:44:50;101950.56;;;20.18;36.16
48872;BME280;36154;51.674;7.824;2023-04-04T12:47:19;101953.13;;;20.29;36.56
48872;BME280;36154;51.674;7.824;2023-04-04T12:49:52;101943.56;;;20.36;37.05
48872;BME280;36154;51.674;7.824;2023-04-04T12:52:28;101934.88;;;20.43;37.43
48872;BME280;36154;51.674;7.824;2023-04-04T12:54:58;101934.03;;;20.47;37.42
48872;BME280;36154;51.674;7.824;2023-04-04T12:57:25;101929.69;;;20.52;37.75
48872;BME280;36154;51.674;7.824;2023-04-04T12:59:53;101922.75;;;20.57;37.93
48872;BME280;36154;51.674;7.824;2023-04-04T13:02:21;101916.66;;;20.61;37.97
48872;BME280;36154;51.674;7.824;2023-04-04T13:04:51;101908.84;;;20.64;38.02
48872;BME280;36154;51.674;7.824;2023-04-04T13:07:27;101902.81;;;20.67;38.22
48872;BME280;36154;51.674;7.824;2023-04-04T13:10:00;101899.31;;;20.70;38.20